EGXU - Linton-On-Ouse
Distance from station: E 5mi, 14km
Updated: 12/18/2017 3:53am
Clear
Clear
 Wind from SSW
Wind: SSW 3 mph , 6 km/h
Temperature: 41°F , 5°C
Dew Point: 36°F , 2°C
Humidity: 81%
Barometer: 30.39 inHg , 1029 hPa
Summary: Clear
Visibility: greater than 7 miles , 10 km
2017/12/18 11:53 EGXU 181153Z 21003KT CAVOK 05/02 Q1029 BLU NOSIG